sensor_id;sensor_type;location;lat;lon;timestamp;pressure;altitude;pressure_sealevel;temperature;humidity
11856;BME280;5987;53.140;8.904;2023-03-03T00:01:34;102560.50;;;-0.03;100.00
11856;BME280;5987;53.140;8.904;2023-03-03T00:04:38;102567.78;;;0.07;100.00
11856;BME280;5987;53.140;8.904;2023-03-03T00:07:43;102564.34;;;0.08;100.00
11856;BME280;5987;53.140;8.904;2023-03-03T00:10:48;102557.22;;;0.01;100.00
11856;BME280;5987;53.140;8.904;2023-03-03T00:13:54;102552.28;;;0.07;100.00
11856;BME280;5987;53.140;8.904;2023-03-03T00:17:11;102560.16;;;0.12;100.00
11856;BME280;5987;53.140;8.904;2023-03-03T00:20:35;102559.06;;;0.05;100.00
11856;BME280;5987;53.140;8.904;2023-03-03T00:23:40;102560.94;;;0.09;100.00
11856;BME280;5987;53.140;8.904;2023-03-03T00:26:48;102562.69;;;0.10;100.00
11856;BME280;5987;53.140;8.904;2023-03-03T00:29:53;102567.63;;;0.04;100.00
11856;BME280;5987;53.140;8.904;2023-03-03T00:32:58;102567.44;;;-0.02;100.00
11856;BME280;5987;53.140;8.904;2023-03-03T00:36:35;102562.56;;;0.06;100.00
11856;BME280;5987;53.140;8.904;2023-03-03T00:39:39;102572.75;;;0.03;100.00
11856;BME280;5987;53.140;8.904;2023-03-03T00:42:49;102558.94;;;0.01;100.00
11856;BME280;5987;53.140;8.904;2023-03-03T00:45:55;102566.88;;;0.07;100.00
11856;BME280;5987;53.140;8.904;2023-03-03T00:48:59;102566.19;;;0.12;100.00
11856;BME280;5987;53.140;8.904;2023-03-03T00:52:10;102563.47;;;0.08;100.00
11856;BME280;5987;53.140;8.904;2023-03-03T00:55:16;102562.84;;;0.15;100.00
11856;BME280;5987;53.140;8.904;2023-03-03T00:58:22;102567.00;;;-0.14;100.00
11856;BME280;5987;53.140;8.904;2023-03-03T01:01:26;102567.94;;;-0.12;100.00
11856;BME280;5987;53.140;8.904;2023-03-03T01:04:30;102563.66;;;-0.12;100.00
11856;BME280;5987;53.140;8.904;2023-03-03T01:07:34;102571.13;;;-0.20;100.00
11856;BME280;5987;53.140;8.904;2023-03-03T01:10:42;102560.25;;;-0.11;100.00
11856;BME280;5987;53.140;8.904;2023-03-03T01:13:50;102558.63;;;-0.07;100.00
11856;BME280;5987;53.140;8.904;2023-03-03T01:16:54;102555.81;;;-0.15;100.00
11856;BME280;5987;53.140;8.904;2023-03-03T01:19:58;102556.25;;;-0.03;100.00
11856;BME280;5987;53.140;8.904;2023-03-03T01:23:02;102552.50;;;-0.11;100.00
11856;BME280;5987;53.140;8.904;2023-03-03T01:26:06;102558.78;;;-0.04;100.00
11856;BME280;5987;53.140;8.904;2023-03-03T01:29:11;102554.69;;;0.03;100.00
11856;BME280;5987;53.140;8.904;2023-03-03T01:32:15;102552.03;;;0.01;100.00
11856;BME280;5987;53.140;8.904;2023-03-03T01:35:20;102549.41;;;-0.01;100.00
11856;BME280;5987;53.140;8.904;2023-03-03T01:38:24;102540.19;;;0.06;100.00
11856;BME280;5987;53.140;8.904;2023-03-03T01:41:28;102537.31;;;-0.02;100.00
11856;BME280;5987;53.140;8.904;2023-03-03T01:44:36;102531.38;;;0.01;100.00
11856;BME280;5987;53.140;8.904;2023-03-03T01:47:45;102532.63;;;-0.13;100.00
11856;BME280;5987;53.140;8.904;2023-03-03T01:50:54;102532.44;;;0.06;100.00
11856;BME280;5987;53.140;8.904;2023-03-03T01:54:03;102529.84;;;0.06;100.00
11856;BME280;5987;53.140;8.904;2023-03-03T01:57:14;102526.75;;;-0.09;100.00
11856;BME280;5987;53.140;8.904;2023-03-03T02:00:20;102521.06;;;0.01;100.00
11856;BME280;5987;53.140;8.904;2023-03-03T02:03:24;102522.00;;;0.03;100.00
11856;BME280;5987;53.140;8.904;2023-03-03T02:06:34;102527.22;;;0.05;100.00
11856;BME280;5987;53.140;8.904;2023-03-03T02:09:51;102525.78;;;0.13;100.00
11856;BME280;5987;53.140;8.904;2023-03-03T02:12:57;102530.63;;;0.04;100.00
11856;BME280;5987;53.140;8.904;2023-03-03T02:16:03;102537.16;;;-0.06;100.00
11856;BME280;5987;53.140;8.904;2023-03-03T02:19:17;102530.91;;;0.11;100.00
11856;BME280;5987;53.140;8.904;2023-03-03T02:22:33;102530.56;;;0.02;100.00
11856;BME280;5987;53.140;8.904;2023-03-03T02:25:48;102536.44;;;-0.02;100.00
11856;BME280;5987;53.140;8.904;2023-03-03T02:28:56;102522.72;;;-0.01;100.00
11856;BME280;5987;53.140;8.904;2023-03-03T02:32:01;102522.72;;;-0.01;100.00
11856;BME280;5987;53.140;8.904;2023-03-03T02:35:30;102525.41;;;0.02;100.00
11856;BME280;5987;53.140;8.904;2023-03-03T02:38:42;102525.59;;;-0.18;100.00
11856;BME280;5987;53.140;8.904;2023-03-03T02:41:53;102523.72;;;-0.22;100.00
11856;BME280;5987;53.140;8.904;2023-03-03T02:44:59;102522.81;;;-0.24;100.00
11856;BME280;5987;53.140;8.904;2023-03-03T02:48:03;102514.13;;;-0.26;100.00
11856;BME280;5987;53.140;8.904;2023-03-03T02:51:07;102515.84;;;-0.26;100.00
11856;BME280;5987;53.140;8.904;2023-03-03T02:54:13;102513.72;;;-0.12;100.00
11856;BME280;5987;53.140;8.904;2023-03-03T02:57:17;102520.31;;;-0.21;100.00
11856;BME280;5987;53.140;8.904;2023-03-03T03:00:22;102524.53;;;-0.23;100.00
11856;BME280;5987;53.140;8.904;2023-03-03T03:03:26;102511.06;;;-0.15;100.00
11856;BME280;5987;53.140;8.904;2023-03-03T03:06:30;102516.31;;;-0.12;100.00
11856;BME280;5987;53.140;8.904;2023-03-03T03:09:33;102508.56;;;-0.12;100.00
11856;BME280;5987;53.140;8.904;2023-03-03T03:12:37;102511.34;;;-0.06;100.00
11856;BME280;5987;53.140;8.904;2023-03-03T03:15:45;102518.28;;;-0.05;100.00
11856;BME280;5987;53.140;8.904;2023-03-03T03:18:49;102517.31;;;-0.07;100.00
11856;BME280;5987;53.140;8.904;2023-03-03T03:21:52;102519.31;;;0.00;100.00
11856;BME280;5987;53.140;8.904;2023-03-03T03:24:56;102520.84;;;-0.05;100.00
11856;BME280;5987;53.140;8.904;2023-03-03T03:28:01;102520.63;;;-0.11;100.00
11856;BME280;5987;53.140;8.904;2023-03-03T03:31:07;102525.22;;;-0.28;100.00
11856;BME280;5987;53.140;8.904;2023-03-03T03:34:12;102522.19;;;-0.16;100.00
11856;BME280;5987;53.140;8.904;2023-03-03T03:37:15;102527.16;;;-0.21;100.00
11856;BME280;5987;53.140;8.904;2023-03-03T03:40:19;102528.06;;;-0.21;100.00
11856;BME280;5987;53.140;8.904;2023-03-03T03:43:23;102521.28;;;-0.17;100.00
11856;BME280;5987;53.140;8.904;2023-03-03T03:46:29;102531.09;;;-0.08;100.00
11856;BME280;5987;53.140;8.904;2023-03-03T03:49:32;102534.28;;;-0.15;100.00
11856;BME280;5987;53.140;8.904;2023-03-03T03:52:36;102535.19;;;-0.13;100.00
11856;BME280;5987;53.140;8.904;2023-03-03T03:55:40;102543.72;;;-0.16;100.00
11856;BME280;5987;53.140;8.904;2023-03-03T03:58:44;102542.03;;;-0.15;100.00
11856;BME280;5987;53.140;8.904;2023-03-03T04:01:49;102536.44;;;-0.02;100.00
11856;BME280;5987;53.140;8.904;2023-03-03T04:04:53;102537.22;;;-0.05;100.00
11856;BME280;5987;53.140;8.904;2023-03-03T04:07:56;102548.53;;;-0.01;100.00
11856;BME280;5987;53.140;8.904;2023-03-03T04:11:00;102545.72;;;-0.07;100.00
11856;BME280;5987;53.140;8.904;2023-03-03T04:14:04;102540.69;;;-0.04;100.00
11856;BME280;5987;53.140;8.904;2023-03-03T04:17:15;102541.50;;;-0.05;100.00
11856;BME280;5987;53.140;8.904;2023-03-03T04:20:19;102536.34;;;-0.05;100.00
11856;BME280;5987;53.140;8.904;2023-03-03T04:23:23;102528.59;;;-0.05;100.00
11856;BME280;5987;53.140;8.904;2023-03-03T04:26:27;102539.84;;;-0.03;100.00
11856;BME280;5987;53.140;8.904;2023-03-03T04:29:30;102533.06;;;-0.01;100.00
11856;BME280;5987;53.140;8.904;2023-03-03T04:32:35;102530.53;;;0.01;100.00
11856;BME280;5987;53.140;8.904;2023-03-03T04:35:39;102523.81;;;0.06;100.00
11856;BME280;5987;53.140;8.904;2023-03-03T04:38:43;102524.34;;;-0.03;100.00
11856;BME280;5987;53.140;8.904;2023-03-03T04:41:46;102522.63;;;-0.04;100.00
11856;BME280;5987;53.140;8.904;2023-03-03T04:44:50;102522.63;;;-0.04;100.00
11856;BME280;5987;53.140;8.904;2023-03-03T04:47:55;102518.38;;;-0.02;100.00
11856;BME280;5987;53.140;8.904;2023-03-03T04:50:59;102517.66;;;0.02;100.00
11856;BME280;5987;53.140;8.904;2023-03-03T04:54:03;102512.59;;;0.05;100.00
11856;BME280;5987;53.140;8.904;2023-03-03T04:57:07;102513.97;;;-0.05;100.00
11856;BME280;5987;53.140;8.904;2023-03-03T05:00:12;102503.59;;;-0.06;100.00
11856;BME280;5987;53.140;8.904;2023-03-03T05:03:18;102506.41;;;0.00;100.00
11856;BME280;5987;53.140;8.904;2023-03-03T05:06:22;102498.66;;;0.00;100.00
11856;BME280;5987;53.140;8.904;2023-03-03T05:09:26;102498.75;;;0.03;100.00
11856;BME280;5987;53.140;8.904;2023-03-03T05:12:30;102500.63;;;0.07;100.00
11856;BME280;5987;53.140;8.904;2023-03-03T05:15:33;102499.06;;;0.12;100.00
11856;BME280;5987;53.140;8.904;2023-03-03T05:18:39;102494.84;;;0.14;100.00
11856;BME280;5987;53.140;8.904;2023-03-03T05:21:43;102493.97;;;0.15;100.00
11856;BME280;5987;53.140;8.904;2023-03-03T05:24:47;102496.31;;;0.08;100.00
11856;BME280;5987;53.140;8.904;2023-03-03T05:27:50;102493.03;;;0.12;100.00
11856;BME280;5987;53.140;8.904;2023-03-03T05:30:56;102497.69;;;0.24;100.00
11856;BME280;5987;53.140;8.904;2023-03-03T05:34:01;102495.34;;;0.30;100.00
11856;BME280;5987;53.140;8.904;2023-03-03T05:37:04;102498.59;;;0.24;100.00
11856;BME280;5987;53.140;8.904;2023-03-03T05:40:10;102502.22;;;0.31;100.00
11856;BME280;5987;53.140;8.904;2023-03-03T05:43:14;102499.66;;;0.31;100.00
11856;BME280;5987;53.140;8.904;2023-03-03T05:46:18;102502.31;;;0.32;100.00
11856;BME280;5987;53.140;8.904;2023-03-03T05:49:23;102513.50;;;0.33;100.00
11856;BME280;5987;53.140;8.904;2023-03-03T05:52:27;102522.00;;;0.29;100.00
11856;BME280;5987;53.140;8.904;2023-03-03T05:55:31;102522.31;;;0.38;100.00
11856;BME280;5987;53.140;8.904;2023-03-03T05:58:34;102520.69;;;0.42;100.00
11856;BME280;5987;53.140;8.904;2023-03-03T06:01:38;102517.22;;;0.41;100.00
11856;BME280;5987;53.140;8.904;2023-03-03T06:04:43;102519.13;;;0.47;100.00
11856;BME280;5987;53.140;8.904;2023-03-03T06:07:47;102528.53;;;0.45;100.00
11856;BME280;5987;53.140;8.904;2023-03-03T06:10:50;102518.41;;;0.51;100.00
11856;BME280;5987;53.140;8.904;2023-03-03T06:13:54;102532.81;;;0.44;100.00
11856;BME280;5987;53.140;8.904;2023-03-03T06:16:58;102534.50;;;0.42;100.00
11856;BME280;5987;53.140;8.904;2023-03-03T06:20:04;102540.88;;;0.54;100.00
11856;BME280;5987;53.140;8.904;2023-03-03T06:23:08;102537.50;;;0.56;100.00
11856;BME280;5987;53.140;8.904;2023-03-03T06:26:12;102550.09;;;0.45;100.00
11856;BME280;5987;53.140;8.904;2023-03-03T06:29:16;102549.38;;;0.49;100.00
11856;BME280;5987;53.140;8.904;2023-03-03T06:32:19;102548.47;;;0.49;100.00
11856;BME280;5987;53.140;8.904;2023-03-03T06:35:24;102555.00;;;0.38;100.00
11856;BME280;5987;53.140;8.904;2023-03-03T06:38:28;102558.66;;;0.44;100.00
11856;BME280;5987;53.140;8.904;2023-03-03T06:41:32;102556.22;;;0.49;100.00
11856;BME280;5987;53.140;8.904;2023-03-03T06:44:36;102552.72;;;0.47;100.00
11856;BME280;5987;53.140;8.904;2023-03-03T06:47:40;102554.63;;;0.53;100.00
11856;BME280;5987;53.140;8.904;2023-03-03T06:50:45;102556.63;;;0.61;100.00
11856;BME280;5987;53.140;8.904;2023-03-03T06:53:51;102562.25;;;0.75;100.00
11856;BME280;5987;53.140;8.904;2023-03-03T06:57:14;102563.91;;;0.73;100.00
11856;BME280;5987;53.140;8.904;2023-03-03T07:00:24;102578.41;;;0.68;100.00
11856;BME280;5987;53.140;8.904;2023-03-03T07:03:34;102575.75;;;0.66;100.00
11856;BME280;5987;53.140;8.904;2023-03-03T07:06:39;102570.63;;;0.68;100.00
11856;BME280;5987;53.140;8.904;2023-03-03T07:09:45;102577.81;;;0.77;100.00
11856;BME280;5987;53.140;8.904;2023-03-03T07:12:49;102575.47;;;0.84;100.00
11856;BME280;5987;53.140;8.904;2023-03-03T07:15:54;102585.81;;;0.84;100.00
11856;BME280;5987;53.140;8.904;2023-03-03T07:18:59;102584.22;;;0.90;100.00
11856;BME280;5987;53.140;8.904;2023-03-03T07:22:15;102596.34;;;0.91;100.00
11856;BME280;5987;53.140;8.904;2023-03-03T07:25:27;102588.88;;;1.00;100.00
11856;BME280;5987;53.140;8.904;2023-03-03T07:28:33;102593.41;;;1.07;100.00
11856;BME280;5987;53.140;8.904;2023-03-03T07:31:40;102592.03;;;1.18;100.00
11856;BME280;5987;53.140;8.904;2023-03-03T07:34:48;102590.56;;;1.27;100.00
11856;BME280;5987;53.140;8.904;2023-03-03T07:37:54;102586.53;;;1.36;100.00
11856;BME280;5987;53.140;8.904;2023-03-03T07:41:00;102576.00;;;1.30;100.00
11856;BME280;5987;53.140;8.904;2023-03-03T07:44:10;102573.88;;;1.47;100.00
11856;BME280;5987;53.140;8.904;2023-03-03T07:47:21;102568.06;;;1.54;100.00
11856;BME280;5987;53.140;8.904;2023-03-03T07:50:25;102571.69;;;1.61;100.00
11856;BME280;5987;53.140;8.904;2023-03-03T07:53:34;102565.38;;;1.82;100.00
11856;BME280;5987;53.140;8.904;2023-03-03T07:56:39;102566.44;;;1.88;100.00
11856;BME280;5987;53.140;8.904;2023-03-03T07:59:47;102570.66;;;1.86;100.00
11856;BME280;5987;53.140;8.904;2023-03-03T08:02:57;102561.88;;;2.13;100.00
11856;BME280;5987;53.140;8.904;2023-03-03T08:06:36;102560.22;;;2.15;100.00
11856;BME280;5987;53.140;8.904;2023-03-03T08:09:47;102560.22;;;2.15;100.00
11856;BME280;5987;53.140;8.904;2023-03-03T08:12:52;102561.25;;;2.22;100.00
11856;BME280;5987;53.140;8.904;2023-03-03T08:16:01;102565.63;;;2.25;100.00
11856;BME280;5987;53.140;8.904;2023-03-03T08:19:20;102570.81;;;2.25;100.00
11856;BME280;5987;53.140;8.904;2023-03-03T08:22:32;102563.97;;;2.62;100.00
11856;BME280;5987;53.140;8.904;2023-03-03T08:25:39;102559.69;;;2.64;100.00
11856;BME280;5987;53.140;8.904;2023-03-03T08:28:44;102550.69;;;2.49;100.00
11856;BME280;5987;53.140;8.904;2023-03-03T08:31:48;102557.03;;;2.61;100.00
11856;BME280;5987;53.140;8.904;2023-03-03T08:34:51;102559.38;;;2.51;100.00
11856;BME280;5987;53.140;8.904;2023-03-03T08:37:55;102558.00;;;2.66;100.00
11856;BME280;5987;53.140;8.904;2023-03-03T08:41:00;102563.47;;;2.78;100.00
11856;BME280;5987;53.140;8.904;2023-03-03T08:44:04;102562.53;;;3.13;100.00
11856;BME280;5987;53.140;8.904;2023-03-03T08:47:08;102554.41;;;3.37;100.00
11856;BME280;5987;53.140;8.904;2023-03-03T08:50:12;102562.34;;;3.05;100.00
11856;BME280;5987;53.140;8.904;2023-03-03T08:53:18;102557.81;;;2.95;100.00
11856;BME280;5987;53.140;8.904;2023-03-03T08:56:23;102564.81;;;2.99;100.00
11856;BME280;5987;53.140;8.904;2023-03-03T08:59:27;102565.81;;;3.04;100.00
11856;BME280;5987;53.140;8.904;2023-03-03T09:02:31;102558.28;;;3.16;100.00
11856;BME280;5987;53.140;8.904;2023-03-03T09:05:37;102560.63;;;3.04;100.00
11856;BME280;5987;53.140;8.904;2023-03-03T09:08:42;102566.78;;;3.11;100.00
11856;BME280;5987;53.140;8.904;2023-03-03T09:11:47;102566.28;;;3.25;100.00
11856;BME280;5987;53.140;8.904;2023-03-03T09:14:51;102565.03;;;3.49;100.00
11856;BME280;5987;53.140;8.904;2023-03-03T09:17:58;102571.84;;;3.44;100.00
11856;BME280;5987;53.140;8.904;2023-03-03T09:21:20;102562.59;;;3.57;100.00
11856;BME280;5987;53.140;8.904;2023-03-03T09:24:27;102563.09;;;3.83;100.00
11856;BME280;5987;53.140;8.904;2023-03-03T09:27:35;102558.59;;;3.73;100.00
11856;BME280;5987;53.140;8.904;2023-03-03T09:30:45;102569.75;;;3.69;100.00
11856;BME280;5987;53.140;8.904;2023-03-03T09:33:50;102557.09;;;3.86;100.00
11856;BME280;5987;53.140;8.904;2023-03-03T09:36:59;102560.31;;;3.74;100.00
11856;BME280;5987;53.140;8.904;2023-03-03T09:40:38;102562.44;;;3.93;100.00
11856;BME280;5987;53.140;8.904;2023-03-03T09:47:39;102559.31;;;4.13;100.00
11856;BME280;5987;53.140;8.904;2023-03-03T09:50:57;102568.94;;;4.19;100.00
11856;BME280;5987;53.140;8.904;2023-03-03T09:54:35;102558.97;;;3.94;100.00
11856;BME280;5987;53.140;8.904;2023-03-03T09:58:04;102560.34;;;4.23;100.00
11856;BME280;5987;53.140;8.904;2023-03-03T10:01:39;102562.66;;;4.06;100.00
11856;BME280;5987;53.140;8.904;2023-03-03T10:05:11;102556.41;;;4.45;100.00
11856;BME280;5987;53.140;8.904;2023-03-03T10:08:36;102558.34;;;4.58;100.00
11856;BME280;5987;53.140;8.904;2023-03-03T10:11:49;102566.94;;;4.54;100.00
11856;BME280;5987;53.140;8.904;2023-03-03T10:15:24;102561.03;;;4.63;100.00
11856;BME280;5987;53.140;8.904;2023-03-03T10:18:38;102550.97;;;4.86;100.00
11856;BME280;5987;53.140;8.904;2023-03-03T10:21:49;102549.88;;;4.72;100.00
11856;BME280;5987;53.140;8.904;2023-03-03T10:25:16;102556.69;;;4.63;100.00
11856;BME280;5987;53.140;8.904;2023-03-03T10:28:51;102558.00;;;4.93;100.00
11856;BME280;5987;53.140;8.904;2023-03-03T10:32:33;102555.69;;;5.13;100.00
11856;BME280;5987;53.140;8.904;2023-03-03T10:36:22;102554.69;;;4.47;100.00
11856;BME280;5987;53.140;8.904;2023-03-03T10:39:59;102567.00;;;4.56;100.00
11856;BME280;5987;53.140;8.904;2023-03-03T10:43:37;102568.38;;;4.90;100.00
11856;BME280;5987;53.140;8.904;2023-03-03T10:47:21;102564.34;;;5.11;100.00
11856;BME280;5987;53.140;8.904;2023-03-03T10:50:40;102567.53;;;4.93;100.00
11856;BME280;5987;53.140;8.904;2023-03-03T10:54:02;102567.28;;;4.74;100.00
11856;BME280;5987;53.140;8.904;2023-03-03T10:57:21;102558.22;;;5.09;100.00
11856;BME280;5987;53.140;8.904;2023-03-03T11:00:30;102559.44;;;5.36;100.00
11856;BME280;5987;53.140;8.904;2023-03-03T11:04:24;102543.38;;;5.74;100.00
11856;BME280;5987;53.140;8.904;2023-03-03T11:07:38;102542.69;;;5.90;100.00
11856;BME280;5987;53.140;8.904;2023-03-03T11:10:56;102535.97;;;6.08;100.00
11856;BME280;5987;53.140;8.904;2023-03-03T11:14:08;102534.19;;;6.04;100.00
11856;BME280;5987;53.140;8.904;2023-03-03T11:17:23;102534.66;;;5.69;100.00
11856;BME280;5987;53.140;8.904;2023-03-03T11:20:41;102531.06;;;5.57;100.00
11856;BME280;5987;53.140;8.904;2023-03-03T11:24:00;102531.50;;;5.99;100.00
11856;BME280;5987;53.140;8.904;2023-03-03T11:27:37;102523.81;;;6.10;100.00
11856;BME280;5987;53.140;8.904;2023-03-03T11:31:01;102524.78;;;6.24;100.00
11856;BME280;5987;53.140;8.904;2023-03-03T11:34:24;102525.28;;;5.86;100.00
11856;BME280;5987;53.140;8.904;2023-03-03T11:37:41;102519.22;;;5.89;100.00
11856;BME280;5987;53.140;8.904;2023-03-03T11:40:52;102517.75;;;6.15;100.00
11856;BME280;5987;53.140;8.904;2023-03-03T11:44:18;102516.09;;;6.25;100.00
11856;BME280;5987;53.140;8.904;2023-03-03T11:47:29;102508.84;;;5.95;100.00
11856;BME280;5987;53.140;8.904;2023-03-03T11:50:43;102509.75;;;5.97;100.00
11856;BME280;5987;53.140;8.904;2023-03-03T11:54:02;102504.06;;;5.52;100.00
11856;BME280;5987;53.140;8.904;2023-03-03T11:57:20;102502.72;;;5.88;100.00
11856;BME280;5987;53.140;8.904;2023-03-03T12:00:36;102498.88;;;5.54;100.00
11856;BME280;5987;53.140;8.904;2023-03-03T12:03:52;102503.31;;;5.62;100.00
11856;BME280;5987;53.140;8.904;2023-03-03T12:07:19;102501.63;;;5.66;100.00
11856;BME280;5987;53.140;8.904;2023-03-03T12:10:31;102502.38;;;5.54;100.00
11856;BME280;5987;53.140;8.904;2023-03-03T12:13:56;102491.09;;;5.58;100.00
11856;BME280;5987;53.140;8.904;2023-03-03T12:17:12;102493.84;;;5.71;100.00
11856;BME280;5987;53.140;8.904;2023-03-03T12:20:28;102489.13;;;5.36;100.00
11856;BME280;5987;53.140;8.904;2023-03-03T12:23:53;102481.56;;;5.59;100.00
11856;BME280;5987;53.140;8.904;2023-03-03T12:27:12;102484.81;;;5.38;100.00
11856;BME280;5987;53.140;8.904;2023-03-03T12:30:28;102488.22;;;5.33;100.00
11856;BME280;5987;53.140;8.904;2023-03-03T12:33:51;102484.78;;;5.36;100.00
11856;BME280;5987;53.140;8.904;2023-03-03T12:37:25;102476.00;;;5.26;100.00
11856;BME280;5987;53.140;8.904;2023-03-03T12:40:34;102480.38;;;5.29;100.00
11856;BME280;5987;53.140;8.904;2023-03-03T12:43:58;102468.91;;;5.16;100.00
11856;BME280;5987;53.140;8.904;2023-03-03T12:47:14;102473.50;;;5.37;100.00
11856;BME280;5987;53.140;8.904;2023-03-03T12:50:35;102468.03;;;5.14;100.00
11856;BME280;5987;53.140;8.904;2023-03-03T12:54:03;102468.00;;;5.09;100.00
11856;BME280;5987;53.140;8.904;2023-03-03T12:57:20;102465.47;;;5.17;100.00
11856;BME280;5987;53.140;8.904;2023-03-03T13:00:37;102453.28;;;5.16;100.00
11856;BME280;5987;53.140;8.904;2023-03-03T13:03:55;102451.84;;;5.43;100.00
11856;BME280;5987;53.140;8.904;2023-03-03T13:07:12;102452.72;;;5.39;100.00
11856;BME280;5987;53.140;8.904;2023-03-03T13:10:26;102434.66;;;5.59;100.00
11856;BME280;5987;53.140;8.904;2023-03-03T13:13:42;102439.88;;;5.57;100.00
11856;BME280;5987;53.140;8.904;2023-03-03T13:17:03;102436.47;;;5.67;100.00
11856;BME280;5987;53.140;8.904;2023-03-03T13:20:24;102433.84;;;5.64;100.00
11856;BME280;5987;53.140;8.904;2023-03-03T13:23:45;102433.81;;;5.60;100.00
11856;BME280;5987;53.140;8.904;2023-03-03T13:26:57;102433.03;;;5.69;100.00
11856;BME280;5987;53.140;8.904;2023-03-03T13:30:14;102433.88;;;5.69;100.00
11856;BME280;5987;53.140;8.904;2023-03-03T13:33:25;102427.00;;;5.76;100.00
11856;BME280;5987;53.140;8.904;2023-03-03T13:36:37;102419.06;;;5.63;100.00
11856;BME280;5987;53.140;8.904;2023-03-03T13:39:55;102426.97;;;5.71;100.00
11856;BME280;5987;53.140;8.904;2023-03-03T13:43:09;102422.63;;;5.72;100.00
11856;BME280;5987;53.140;8.904;2023-03-03T13:46:27;102426.81;;;5.54;100.00
11856;BME280;5987;53.140;8.904;2023-03-03T13:49:51;102420.84;;;5.67;100.00
11856;BME280;5987;53.140;8.904;2023-03-03T13:53:28;102416.25;;;5.42;100.00
11856;BME280;5987;53.140;8.904;2023-03-03T13:57:00;102414.66;;;5.55;100.00
11856;BME280;5987;53.140;8.904;2023-03-03T14:00:21;102409.28;;;5.39;100.00
11856;BME280;5987;53.140;8.904;2023-03-03T14:03:51;102407.69;;;5.54;100.00
11856;BME280;5987;53.140;8.904;2023-03-03T14:07:08;102399.19;;;5.76;100.00
11856;BME280;5987;53.140;8.904;2023-03-03T14:10:21;102395.47;;;5.49;100.00
11856;BME280;5987;53.140;8.904;2023-03-03T14:13:39;102398.25;;;5.66;100.00
11856;BME280;5987;53.140;8.904;2023-03-03T14:16:51;102397.25;;;5.54;100.00
11856;BME280;5987;53.140;8.904;2023-03-03T14:20:13;102389.47;;;5.58;100.00
11856;BME280;5987;53.140;8.904;2023-03-03T14:23:30;102383.38;;;5.52;100.00
11856;BME280;5987;53.140;8.904;2023-03-03T14:26:46;102390.22;;;5.40;100.00
11856;BME280;5987;53.140;8.904;2023-03-03T14:29:52;102382.53;;;5.54;100.00
11856;BME280;5987;53.140;8.904;2023-03-03T14:33:15;102382.44;;;5.45;100.00
11856;BME280;5987;53.140;8.904;2023-03-03T14:36:27;102378.88;;;5.38;100.00
11856;BME280;5987;53.140;8.904;2023-03-03T14:39:34;102375.28;;;5.25;100.00
11856;BME280;5987;53.140;8.904;2023-03-03T14:42:47;102370.91;;;5.23;100.00
11856;BME280;5987;53.140;8.904;2023-03-03T14:45:53;102370.88;;;5.18;100.00
11856;BME280;5987;53.140;8.904;2023-03-03T14:49:00;102369.94;;;5.13;100.00
11856;BME280;5987;53.140;8.904;2023-03-03T14:52:19;102373.47;;;5.15;100.00
11856;BME280;5987;53.140;8.904;2023-03-03T14:55:34;102366.47;;;5.12;100.00
11856;BME280;5987;53.140;8.904;2023-03-03T14:58:40;102364.84;;;5.22;100.00
11856;BME280;5987;53.140;8.904;2023-03-03T15:01:46;102358.69;;;5.14;100.00
11856;BME280;5987;53.140;8.904;2023-03-03T15:05:21;102357.84;;;5.18;100.00
11856;BME280;5987;53.140;8.904;2023-03-03T15:08:33;102355.22;;;5.13;100.00
11856;BME280;5987;53.140;8.904;2023-03-03T15:11:36;102356.06;;;5.11;100.00
11856;BME280;5987;53.140;8.904;2023-03-03T15:14:45;102353.50;;;5.19;100.00
11856;BME280;5987;53.140;8.904;2023-03-03T15:17:57;102349.13;;;5.13;100.00
11856;BME280;5987;53.140;8.904;2023-03-03T15:21:06;102336.09;;;5.11;100.00
11856;BME280;5987;53.140;8.904;2023-03-03T15:24:23;102346.53;;;5.16;100.00
11856;BME280;5987;53.140;8.904;2023-03-03T15:27:32;102342.94;;;5.03;100.00
11856;BME280;5987;53.140;8.904;2023-03-03T15:30:47;102342.91;;;5.00;100.00
11856;BME280;5987;53.140;8.904;2023-03-03T15:34:04;102333.50;;;5.13;100.00
11856;BME280;5987;53.140;8.904;2023-03-03T15:37:30;102329.91;;;5.02;100.00
11856;BME280;5987;53.140;8.904;2023-03-03T15:40:45;102323.84;;;5.01;100.00
11856;BME280;5987;53.140;8.904;2023-03-03T15:44:01;102326.47;;;5.06;100.00
11856;BME280;5987;53.140;8.904;2023-03-03T15:47:32;102324.69;;;5.02;100.00
11856;BME280;5987;53.140;8.904;2023-03-03T15:50:50;102322.94;;;5.01;100.00
11856;BME280;5987;53.140;8.904;2023-03-03T15:54:33;102319.47;;;4.98;100.00
11856;BME280;5987;53.140;8.904;2023-03-03T15:57:57;102316.88;;;4.98;100.00
11856;BME280;5987;53.140;8.904;2023-03-03T16:01:12;102311.66;;;4.97;100.00
11856;BME280;5987;53.140;8.904;2023-03-03T16:04:24;102308.13;;;4.92;100.00
11856;BME280;5987;53.140;8.904;2023-03-03T16:07:49;102312.44;;;4.88;100.00
11856;BME280;5987;53.140;8.904;2023-03-03T16:11:07;102313.31;;;4.90;100.00
11856;BME280;5987;53.140;8.904;2023-03-03T16:14:44;102315.78;;;4.78;100.00
11856;BME280;5987;53.140;8.904;2023-03-03T16:17:59;102313.31;;;4.90;100.00
11856;BME280;5987;53.140;8.904;2023-03-03T16:21:20;102310.63;;;4.81;100.00
11856;BME280;5987;53.140;8.904;2023-03-03T16:24:41;102315.84;;;4.81;100.00
11856;BME280;5987;53.140;8.904;2023-03-03T16:27:53;102302.72;;;4.75;100.00
11856;BME280;5987;53.140;8.904;2023-03-03T16:31:06;102307.09;;;4.76;100.00
11856;BME280;5987;53.140;8.904;2023-03-03T16:34:18;102305.34;;;4.75;100.00
11856;BME280;5987;53.140;8.904;2023-03-03T16:37:30;102313.97;;;4.71;100.00
11856;BME280;5987;53.140;8.904;2023-03-03T16:40:44;102312.25;;;4.73;100.00
11856;BME280;5987;53.140;8.904;2023-03-03T16:44:03;102311.34;;;4.71;100.00
11856;BME280;5987;53.140;8.904;2023-03-03T16:47:25;102315.84;;;4.81;100.00
11856;BME280;5987;53.140;8.904;2023-03-03T16:50:45;102320.88;;;4.69;100.00
11856;BME280;5987;53.140;8.904;2023-03-03T16:54:00;102309.66;;;4.71;100.00
11856;BME280;5987;53.140;8.904;2023-03-03T16:57:18;102315.69;;;4.69;100.00